« Back
NWS Peachtree City, Ga » Text Product » MCN Terminal Aerodrome Forecast


Printer-friendly Version
Current Version              Previous Versions:   1  2  3  4  5  6  7  8  9  

Terminal Aerodrome Forecast

241
FTUS42 KFFC 311129
TAFMCN
TAF
KMCN 311129Z 3112/0112 VRB03KT P6SM SKC
     FM311400 04004KT P6SM FEW050
     FM311800 VRB04KT P6SM SCT060
     FM010000 00000KT P6SM SCT100=

USA.gov is the U.S. government's official web portal to all federal, state and local government web resources and services.